sensor_id;sensor_type;location;lat;lon;timestamp;P1;durP1;ratioP1;P2;durP2;ratioP2
8889;SDS011;4481;43.406;24.454;2023-02-01T00:01:27;8.33;;;4.13;;
8889;SDS011;4481;43.406;24.454;2023-02-01T00:03:53;5.30;;;4.40;;
8889;SDS011;4481;43.406;24.454;2023-02-01T00:06:20;5.00;;;3.83;;
8889;SDS011;4481;43.406;24.454;2023-02-01T00:08:46;4.30;;;3.90;;
8889;SDS011;4481;43.406;24.454;2023-02-01T00:11:12;5.90;;;4.10;;
8889;SDS011;4481;43.406;24.454;2023-02-01T00:13:40;4.87;;;3.93;;
8889;SDS011;4481;43.406;24.454;2023-02-01T00:16:08;7.37;;;3.60;;
8889;SDS011;4481;43.406;24.454;2023-02-01T00:18:37;4.70;;;4.00;;
8889;SDS011;4481;43.406;24.454;2023-02-01T00:21:03;5.20;;;4.00;;
8889;SDS011;4481;43.406;24.454;2023-02-01T00:23:31;7.27;;;4.63;;
8889;SDS011;4481;43.406;24.454;2023-02-01T00:25:59;6.13;;;4.20;;
8889;SDS011;4481;43.406;24.454;2023-02-01T00:28:26;6.60;;;4.30;;
8889;SDS011;4481;43.406;24.454;2023-02-01T00:30:56;5.73;;;4.20;;
8889;SDS011;4481;43.406;24.454;2023-02-01T00:33:22;9.33;;;5.90;;
8889;SDS011;4481;43.406;24.454;2023-02-01T00:35:49;8.80;;;5.53;;
8889;SDS011;4481;43.406;24.454;2023-02-01T00:38:15;11.10;;;6.30;;
8889;SDS011;4481;43.406;24.454;2023-02-01T00:40:41;17.63;;;7.30;;
8889;SDS011;4481;43.406;24.454;2023-02-01T00:43:07;9.07;;;6.10;;
8889;SDS011;4481;43.406;24.454;2023-02-01T00:45:33;12.27;;;6.93;;
8889;SDS011;4481;43.406;24.454;2023-02-01T00:47:59;9.40;;;5.40;;
8889;SDS011;4481;43.406;24.454;2023-02-01T00:50:26;3.70;;;3.30;;
8889;SDS011;4481;43.406;24.454;2023-02-01T00:52:52;5.83;;;3.57;;
8889;SDS011;4481;43.406;24.454;2023-02-01T00:55:18;3.97;;;3.50;;
8889;SDS011;4481;43.406;24.454;2023-02-01T00:57:44;10.30;;;4.60;;
8889;SDS011;4481;43.406;24.454;2023-02-01T01:00:10;5.93;;;3.90;;
8889;SDS011;4481;43.406;24.454;2023-02-01T01:02:37;4.07;;;3.30;;
8889;SDS011;4481;43.406;24.454;2023-02-01T01:05:04;4.37;;;3.27;;
8889;SDS011;4481;43.406;24.454;2023-02-01T01:07:30;6.03;;;3.37;;
8889;SDS011;4481;43.406;24.454;2023-02-01T01:09:56;4.13;;;3.57;;
8889;SDS011;4481;43.406;24.454;2023-02-01T01:12:22;6.57;;;3.23;;
8889;SDS011;4481;43.406;24.454;2023-02-01T01:14:48;4.87;;;4.33;;
8889;SDS011;4481;43.406;24.454;2023-02-01T01:17:14;4.83;;;4.10;;
8889;SDS011;4481;43.406;24.454;2023-02-01T01:19:40;7.60;;;4.20;;
8889;SDS011;4481;43.406;24.454;2023-02-01T01:22:07;6.93;;;4.60;;
8889;SDS011;4481;43.406;24.454;2023-02-01T01:24:33;6.23;;;4.30;;
8889;SDS011;4481;43.406;24.454;2023-02-01T01:26:59;5.53;;;4.57;;
8889;SDS011;4481;43.406;24.454;2023-02-01T01:29:25;6.00;;;4.40;;
8889;SDS011;4481;43.406;24.454;2023-02-01T01:31:51;7.53;;;5.03;;
8889;SDS011;4481;43.406;24.454;2023-02-01T01:34:18;5.60;;;4.23;;
8889;SDS011;4481;43.406;24.454;2023-02-01T01:36:44;6.50;;;5.30;;
8889;SDS011;4481;43.406;24.454;2023-02-01T01:39:11;7.73;;;5.53;;
8889;SDS011;4481;43.406;24.454;2023-02-01T01:41:37;6.73;;;5.43;;
8889;SDS011;4481;43.406;24.454;2023-02-01T01:44:03;5.23;;;4.70;;
8889;SDS011;4481;43.406;24.454;2023-02-01T01:46:31;8.70;;;5.10;;
8889;SDS011;4481;43.406;24.454;2023-02-01T01:49:02;7.17;;;5.23;;
8889;SDS011;4481;43.406;24.454;2023-02-01T01:51:32;10.13;;;5.30;;
8889;SDS011;4481;43.406;24.454;2023-02-01T01:54:04;5.97;;;4.63;;
8889;SDS011;4481;43.406;24.454;2023-02-01T01:56:35;12.00;;;5.67;;
8889;SDS011;4481;43.406;24.454;2023-02-01T01:59:02;7.27;;;5.20;;
8889;SDS011;4481;43.406;24.454;2023-02-01T02:01:30;8.53;;;5.40;;
8889;SDS011;4481;43.406;24.454;2023-02-01T02:03:57;11.10;;;6.03;;
8889;SDS011;4481;43.406;24.454;2023-02-01T02:06:34;6.97;;;5.07;;
8889;SDS011;4481;43.406;24.454;2023-02-01T02:09:10;7.57;;;5.57;;
8889;SDS011;4481;43.406;24.454;2023-02-01T02:11:37;6.87;;;5.53;;
8889;SDS011;4481;43.406;24.454;2023-02-01T02:14:03;7.47;;;5.43;;
8889;SDS011;4481;43.406;24.454;2023-02-01T02:16:37;9.60;;;5.47;;
8889;SDS011;4481;43.406;24.454;2023-02-01T02:19:22;8.20;;;5.60;;
8889;SDS011;4481;43.406;24.454;2023-02-01T02:22:16;9.20;;;6.00;;
8889;SDS011;4481;43.406;24.454;2023-02-01T02:25:02;7.23;;;6.00;;
8889;SDS011;4481;43.406;24.454;2023-02-01T02:27:59;7.53;;;5.90;;
8889;SDS011;4481;43.406;24.454;2023-02-01T02:30:40;8.07;;;6.20;;
8889;SDS011;4481;43.406;24.454;2023-02-01T02:36:15;7.43;;;5.80;;
8889;SDS011;4481;43.406;24.454;2023-02-01T02:38:47;6.23;;;5.63;;
8889;SDS011;4481;43.406;24.454;2023-02-01T02:41:19;5.83;;;5.10;;
8889;SDS011;4481;43.406;24.454;2023-02-01T02:44:12;7.20;;;6.03;;
8889;SDS011;4481;43.406;24.454;2023-02-01T02:47:21;7.43;;;5.80;;
8889;SDS011;4481;43.406;24.454;2023-02-01T02:49:55;6.63;;;5.83;;
8889;SDS011;4481;43.406;24.454;2023-02-01T02:52:48;7.10;;;5.50;;
8889;SDS011;4481;43.406;24.454;2023-02-01T02:55:41;6.17;;;4.83;;
8889;SDS011;4481;43.406;24.454;2023-02-01T02:58:09;6.43;;;5.73;;
8889;SDS011;4481;43.406;24.454;2023-02-01T03:00:56;6.03;;;4.73;;
8889;SDS011;4481;43.406;24.454;2023-02-01T03:03:41;5.67;;;4.60;;
8889;SDS011;4481;43.406;24.454;2023-02-01T03:06:34;5.93;;;5.30;;
8889;SDS011;4481;43.406;24.454;2023-02-01T03:09:02;7.37;;;5.57;;
8889;SDS011;4481;43.406;24.454;2023-02-01T03:11:33;5.40;;;4.53;;
8889;SDS011;4481;43.406;24.454;2023-02-01T03:14:15;5.97;;;4.83;;
8889;SDS011;4481;43.406;24.454;2023-02-01T03:16:46;6.00;;;4.70;;
8889;SDS011;4481;43.406;24.454;2023-02-01T03:19:17;5.27;;;4.77;;
8889;SDS011;4481;43.406;24.454;2023-02-01T03:21:48;9.60;;;4.90;;
8889;SDS011;4481;43.406;24.454;2023-02-01T03:24:20;5.83;;;4.50;;
8889;SDS011;4481;43.406;24.454;2023-02-01T03:26:58;5.77;;;4.60;;
8889;SDS011;4481;43.406;24.454;2023-02-01T03:29:33;7.67;;;5.27;;
8889;SDS011;4481;43.406;24.454;2023-02-01T03:32:06;5.33;;;4.80;;
8889;SDS011;4481;43.406;24.454;2023-02-01T03:34:34;5.63;;;4.70;;
8889;SDS011;4481;43.406;24.454;2023-02-01T03:37:01;8.80;;;4.90;;
8889;SDS011;4481;43.406;24.454;2023-02-01T03:39:31;8.47;;;5.60;;
8889;SDS011;4481;43.406;24.454;2023-02-01T03:42:01;6.07;;;4.60;;
8889;SDS011;4481;43.406;24.454;2023-02-01T03:44:31;5.40;;;4.30;;
8889;SDS011;4481;43.406;24.454;2023-02-01T03:47:02;5.97;;;5.07;;
8889;SDS011;4481;43.406;24.454;2023-02-01T03:49:34;9.83;;;5.20;;
8889;SDS011;4481;43.406;24.454;2023-02-01T03:52:03;5.33;;;4.40;;
8889;SDS011;4481;43.406;24.454;2023-02-01T03:54:32;7.97;;;5.13;;
8889;SDS011;4481;43.406;24.454;2023-02-01T03:57:01;7.37;;;5.27;;
8889;SDS011;4481;43.406;24.454;2023-02-01T03:59:33;5.73;;;4.67;;
8889;SDS011;4481;43.406;24.454;2023-02-01T04:01:59;7.60;;;5.00;;
8889;SDS011;4481;43.406;24.454;2023-02-01T04:04:25;7.20;;;4.93;;
8889;SDS011;4481;43.406;24.454;2023-02-01T04:06:51;10.30;;;5.70;;
8889;SDS011;4481;43.406;24.454;2023-02-01T04:09:18;6.93;;;5.73;;
8889;SDS011;4481;43.406;24.454;2023-02-01T04:11:44;8.53;;;6.60;;
8889;SDS011;4481;43.406;24.454;2023-02-01T04:14:10;10.13;;;7.00;;
8889;SDS011;4481;43.406;24.454;2023-02-01T04:16:36;9.67;;;6.80;;
8889;SDS011;4481;43.406;24.454;2023-02-01T04:19:02;14.00;;;7.23;;
8889;SDS011;4481;43.406;24.454;2023-02-01T04:21:29;11.23;;;8.10;;
8889;SDS011;4481;43.406;24.454;2023-02-01T04:23:55;10.30;;;7.17;;
8889;SDS011;4481;43.406;24.454;2023-02-01T04:26:22;9.77;;;7.20;;
8889;SDS011;4481;43.406;24.454;2023-02-01T04:28:48;8.37;;;6.40;;
8889;SDS011;4481;43.406;24.454;2023-02-01T04:31:14;7.50;;;6.70;;
8889;SDS011;4481;43.406;24.454;2023-02-01T04:33:41;9.13;;;7.20;;
8889;SDS011;4481;43.406;24.454;2023-02-01T04:36:07;6.50;;;5.90;;
8889;SDS011;4481;43.406;24.454;2023-02-01T04:38:33;9.17;;;5.73;;
8889;SDS011;4481;43.406;24.454;2023-02-01T04:40:59;6.57;;;4.93;;
8889;SDS011;4481;43.406;24.454;2023-02-01T04:43:26;7.33;;;5.03;;
8889;SDS011;4481;43.406;24.454;2023-02-01T04:45:52;5.40;;;4.13;;
8889;SDS011;4481;43.406;24.454;2023-02-01T04:48:19;5.30;;;4.70;;
8889;SDS011;4481;43.406;24.454;2023-02-01T04:50:46;5.73;;;4.33;;
8889;SDS011;4481;43.406;24.454;2023-02-01T04:53:14;5.17;;;3.63;;
8889;SDS011;4481;43.406;24.454;2023-02-01T04:55:40;5.80;;;4.57;;
8889;SDS011;4481;43.406;24.454;2023-02-01T04:58:06;5.00;;;4.43;;
8889;SDS011;4481;43.406;24.454;2023-02-01T05:00:33;5.50;;;4.37;;
8889;SDS011;4481;43.406;24.454;2023-02-01T05:02:59;7.53;;;4.60;;
8889;SDS011;4481;43.406;24.454;2023-02-01T05:05:26;6.30;;;4.80;;
8889;SDS011;4481;43.406;24.454;2023-02-01T05:07:52;5.73;;;4.50;;
8889;SDS011;4481;43.406;24.454;2023-02-01T05:10:18;8.13;;;5.23;;
8889;SDS011;4481;43.406;24.454;2023-02-01T05:12:44;6.13;;;5.30;;
8889;SDS011;4481;43.406;24.454;2023-02-01T05:15:29;11.67;;;6.37;;
8889;SDS011;4481;43.406;24.454;2023-02-01T05:17:56;7.50;;;6.07;;
8889;SDS011;4481;43.406;24.454;2023-02-01T05:20:22;9.40;;;6.23;;
8889;SDS011;4481;43.406;24.454;2023-02-01T05:22:49;12.53;;;6.70;;
8889;SDS011;4481;43.406;24.454;2023-02-01T05:25:15;8.70;;;6.30;;
8889;SDS011;4481;43.406;24.454;2023-02-01T05:27:41;11.50;;;5.60;;
8889;SDS011;4481;43.406;24.454;2023-02-01T05:30:07;9.17;;;6.20;;
8889;SDS011;4481;43.406;24.454;2023-02-01T05:32:34;6.87;;;5.63;;
8889;SDS011;4481;43.406;24.454;2023-02-01T05:35:01;11.03;;;6.43;;
8889;SDS011;4481;43.406;24.454;2023-02-01T05:37:27;8.87;;;5.87;;
8889;SDS011;4481;43.406;24.454;2023-02-01T05:39:53;8.33;;;6.23;;
8889;SDS011;4481;43.406;24.454;2023-02-01T05:42:20;10.20;;;7.53;;
8889;SDS011;4481;43.406;24.454;2023-02-01T05:44:46;15.17;;;8.47;;
8889;SDS011;4481;43.406;24.454;2023-02-01T05:47:12;14.17;;;8.23;;
8889;SDS011;4481;43.406;24.454;2023-02-01T05:49:38;16.63;;;8.93;;
8889;SDS011;4481;43.406;24.454;2023-02-01T05:52:04;16.03;;;8.33;;
8889;SDS011;4481;43.406;24.454;2023-02-01T05:54:31;14.27;;;8.30;;
8889;SDS011;4481;43.406;24.454;2023-02-01T05:56:57;14.83;;;9.13;;
8889;SDS011;4481;43.406;24.454;2023-02-01T05:59:23;17.30;;;10.43;;
8889;SDS011;4481;43.406;24.454;2023-02-01T06:01:49;16.93;;;9.77;;
8889;SDS011;4481;43.406;24.454;2023-02-01T06:04:15;18.10;;;9.90;;
8889;SDS011;4481;43.406;24.454;2023-02-01T06:06:41;12.33;;;8.53;;
8889;SDS011;4481;43.406;24.454;2023-02-01T06:09:08;16.23;;;8.90;;
8889;SDS011;4481;43.406;24.454;2023-02-01T06:11:34;11.80;;;8.27;;
8889;SDS011;4481;43.406;24.454;2023-02-01T06:14:00;13.40;;;8.47;;
8889;SDS011;4481;43.406;24.454;2023-02-01T06:16:26;10.10;;;7.73;;
8889;SDS011;4481;43.406;24.454;2023-02-01T06:18:53;9.90;;;7.53;;
8889;SDS011;4481;43.406;24.454;2023-02-01T06:21:19;13.23;;;7.77;;
8889;SDS011;4481;43.406;24.454;2023-02-01T06:23:48;11.50;;;8.50;;
8889;SDS011;4481;43.406;24.454;2023-02-01T06:26:15;10.40;;;8.03;;
8889;SDS011;4481;43.406;24.454;2023-02-01T06:28:42;11.60;;;8.03;;
8889;SDS011;4481;43.406;24.454;2023-02-01T06:31:08;10.67;;;8.07;;
8889;SDS011;4481;43.406;24.454;2023-02-01T06:33:34;9.57;;;7.43;;
8889;SDS011;4481;43.406;24.454;2023-02-01T06:36:02;12.23;;;7.40;;
8889;SDS011;4481;43.406;24.454;2023-02-01T06:38:30;9.33;;;6.27;;
8889;SDS011;4481;43.406;24.454;2023-02-01T06:40:57;8.43;;;5.23;;
8889;SDS011;4481;43.406;24.454;2023-02-01T06:43:24;7.30;;;4.50;;
8889;SDS011;4481;43.406;24.454;2023-02-01T06:45:51;6.23;;;4.40;;
8889;SDS011;4481;43.406;24.454;2023-02-01T06:48:18;6.73;;;4.53;;
8889;SDS011;4481;43.406;24.454;2023-02-01T06:50:44;8.20;;;4.60;;
8889;SDS011;4481;43.406;24.454;2023-02-01T06:53:10;7.77;;;4.50;;
8889;SDS011;4481;43.406;24.454;2023-02-01T06:55:37;6.10;;;4.10;;
8889;SDS011;4481;43.406;24.454;2023-02-01T06:58:03;4.67;;;3.87;;
8889;SDS011;4481;43.406;24.454;2023-02-01T07:00:29;4.53;;;3.83;;
8889;SDS011;4481;43.406;24.454;2023-02-01T07:02:56;6.73;;;4.40;;
8889;SDS011;4481;43.406;24.454;2023-02-01T07:05:24;6.80;;;4.30;;
8889;SDS011;4481;43.406;24.454;2023-02-01T07:07:50;5.83;;;4.67;;
8889;SDS011;4481;43.406;24.454;2023-02-01T07:10:16;5.43;;;4.10;;
8889;SDS011;4481;43.406;24.454;2023-02-01T07:12:42;5.50;;;4.07;;
8889;SDS011;4481;43.406;24.454;2023-02-01T07:15:09;6.43;;;4.40;;
8889;SDS011;4481;43.406;24.454;2023-02-01T07:17:36;5.70;;;4.77;;
8889;SDS011;4481;43.406;24.454;2023-02-01T07:20:02;10.30;;;5.53;;
8889;SDS011;4481;43.406;24.454;2023-02-01T07:22:29;9.00;;;4.50;;
8889;SDS011;4481;43.406;24.454;2023-02-01T07:24:55;6.60;;;4.77;;
8889;SDS011;4481;43.406;24.454;2023-02-01T07:27:21;8.30;;;4.80;;
8889;SDS011;4481;43.406;24.454;2023-02-01T07:29:49;4.93;;;4.40;;
8889;SDS011;4481;43.406;24.454;2023-02-01T07:32:16;7.57;;;4.47;;
8889;SDS011;4481;43.406;24.454;2023-02-01T07:34:43;8.77;;;4.40;;
8889;SDS011;4481;43.406;24.454;2023-02-01T07:37:09;4.23;;;3.83;;
8889;SDS011;4481;43.406;24.454;2023-02-01T07:39:35;5.80;;;4.10;;
8889;SDS011;4481;43.406;24.454;2023-02-01T07:42:02;4.67;;;3.20;;
8889;SDS011;4481;43.406;24.454;2023-02-01T07:44:28;5.33;;;4.37;;
8889;SDS011;4481;43.406;24.454;2023-02-01T07:46:54;7.93;;;4.30;;
8889;SDS011;4481;43.406;24.454;2023-02-01T07:49:20;7.93;;;4.10;;
8889;SDS011;4481;43.406;24.454;2023-02-01T07:51:47;6.27;;;3.87;;
8889;SDS011;4481;43.406;24.454;2023-02-01T07:54:13;7.63;;;4.13;;
8889;SDS011;4481;43.406;24.454;2023-02-01T07:56:39;6.50;;;4.53;;
8889;SDS011;4481;43.406;24.454;2023-02-01T07:59:05;6.20;;;3.97;;
8889;SDS011;4481;43.406;24.454;2023-02-01T08:01:32;10.70;;;5.40;;
8889;SDS011;4481;43.406;24.454;2023-02-01T08:03:59;8.27;;;4.90;;
8889;SDS011;4481;43.406;24.454;2023-02-01T08:06:28;8.43;;;4.50;;
8889;SDS011;4481;43.406;24.454;2023-02-01T08:08:56;5.17;;;4.07;;
8889;SDS011;4481;43.406;24.454;2023-02-01T08:11:24;6.60;;;4.67;;
8889;SDS011;4481;43.406;24.454;2023-02-01T08:13:51;6.70;;;5.33;;
8889;SDS011;4481;43.406;24.454;2023-02-01T08:16:18;9.67;;;5.93;;
8889;SDS011;4481;43.406;24.454;2023-02-01T08:18:45;7.97;;;5.37;;
8889;SDS011;4481;43.406;24.454;2023-02-01T08:21:12;9.40;;;5.33;;
8889;SDS011;4481;43.406;24.454;2023-02-01T08:23:40;5.70;;;4.97;;
8889;SDS011;4481;43.406;24.454;2023-02-01T08:26:08;7.57;;;4.47;;
8889;SDS011;4481;43.406;24.454;2023-02-01T08:28:35;9.70;;;5.37;;
8889;SDS011;4481;43.406;24.454;2023-02-01T08:31:06;7.67;;;5.90;;
8889;SDS011;4481;43.406;24.454;2023-02-01T08:33:33;7.00;;;5.00;;
8889;SDS011;4481;43.406;24.454;2023-02-01T08:36:01;5.67;;;4.00;;
8889;SDS011;4481;43.406;24.454;2023-02-01T08:38:28;10.57;;;5.20;;
8889;SDS011;4481;43.406;24.454;2023-02-01T08:40:54;10.23;;;4.77;;
8889;SDS011;4481;43.406;24.454;2023-02-01T08:43:21;4.87;;;3.63;;
8889;SDS011;4481;43.406;24.454;2023-02-01T08:45:47;3.60;;;3.30;;
8889;SDS011;4481;43.406;24.454;2023-02-01T08:48:14;7.17;;;3.87;;
8889;SDS011;4481;43.406;24.454;2023-02-01T08:50:41;6.97;;;4.20;;
8889;SDS011;4481;43.406;24.454;2023-02-01T08:53:07;8.00;;;3.90;;
8889;SDS011;4481;43.406;24.454;2023-02-01T08:55:33;5.47;;;3.20;;
8889;SDS011;4481;43.406;24.454;2023-02-01T08:57:59;4.47;;;2.80;;
8889;SDS011;4481;43.406;24.454;2023-02-01T09:00:25;5.57;;;2.87;;
8889;SDS011;4481;43.406;24.454;2023-02-01T09:02:51;4.37;;;2.93;;
8889;SDS011;4481;43.406;24.454;2023-02-01T09:05:18;3.13;;;2.83;;
8889;SDS011;4481;43.406;24.454;2023-02-01T09:07:47;3.97;;;2.70;;
8889;SDS011;4481;43.406;24.454;2023-02-01T09:10:13;6.00;;;2.67;;
8889;SDS011;4481;43.406;24.454;2023-02-01T09:12:39;6.97;;;2.87;;
8889;SDS011;4481;43.406;24.454;2023-02-01T09:15:05;5.70;;;2.70;;
8889;SDS011;4481;43.406;24.454;2023-02-01T09:17:34;3.43;;;2.23;;
8889;SDS011;4481;43.406;24.454;2023-02-01T09:20:00;6.70;;;2.63;;
8889;SDS011;4481;43.406;24.454;2023-02-01T09:22:26;4.00;;;2.83;;
8889;SDS011;4481;43.406;24.454;2023-02-01T09:24:52;3.80;;;2.43;;
8889;SDS011;4481;43.406;24.454;2023-02-01T09:27:18;3.23;;;2.43;;
8889;SDS011;4481;43.406;24.454;2023-02-01T09:29:45;3.17;;;2.40;;
8889;SDS011;4481;43.406;24.454;2023-02-01T09:32:14;3.10;;;2.50;;
8889;SDS011;4481;43.406;24.454;2023-02-01T09:34:41;2.30;;;1.80;;
8889;SDS011;4481;43.406;24.454;2023-02-01T09:37:07;3.37;;;2.37;;
8889;SDS011;4481;43.406;24.454;2023-02-01T09:39:33;4.03;;;2.33;;
8889;SDS011;4481;43.406;24.454;2023-02-01T09:42:02;4.90;;;2.50;;
8889;SDS011;4481;43.406;24.454;2023-02-01T09:44:41;3.33;;;2.30;;
8889;SDS011;4481;43.406;24.454;2023-02-01T09:47:18;2.97;;;2.43;;
8889;SDS011;4481;43.406;24.454;2023-02-01T09:49:50;5.43;;;3.00;;
8889;SDS011;4481;43.406;24.454;2023-02-01T09:52:23;4.03;;;2.43;;
8889;SDS011;4481;43.406;24.454;2023-02-01T09:54:54;3.63;;;2.30;;
8889;SDS011;4481;43.406;24.454;2023-02-01T09:57:28;2.90;;;1.70;;
8889;SDS011;4481;43.406;24.454;2023-02-01T10:00:06;3.60;;;2.33;;
8889;SDS011;4481;43.406;24.454;2023-02-01T10:02:40;3.03;;;2.33;;
8889;SDS011;4481;43.406;24.454;2023-02-01T10:05:11;2.73;;;1.83;;
8889;SDS011;4481;43.406;24.454;2023-02-01T10:07:40;3.40;;;2.33;;
8889;SDS011;4481;43.406;24.454;2023-02-01T10:10:15;5.10;;;3.33;;
8889;SDS011;4481;43.406;24.454;2023-02-01T10:12:57;3.83;;;2.60;;
8889;SDS011;4481;43.406;24.454;2023-02-01T10:15:48;2.93;;;2.07;;
8889;SDS011;4481;43.406;24.454;2023-02-01T10:18:33;4.63;;;2.07;;
8889;SDS011;4481;43.406;24.454;2023-02-01T10:21:18;2.10;;;1.90;;
8889;SDS011;4481;43.406;24.454;2023-02-01T10:24:11;5.50;;;2.53;;
8889;SDS011;4481;43.406;24.454;2023-02-01T10:26:46;5.37;;;2.00;;
8889;SDS011;4481;43.406;24.454;2023-02-01T10:29:18;3.97;;;1.80;;
8889;SDS011;4481;43.406;24.454;2023-02-01T10:31:47;4.93;;;2.10;;
8889;SDS011;4481;43.406;24.454;2023-02-01T10:34:15;5.03;;;2.00;;
8889;SDS011;4481;43.406;24.454;2023-02-01T10:36:49;5.27;;;1.83;;
8889;SDS011;4481;43.406;24.454;2023-02-01T10:39:18;2.67;;;2.20;;
8889;SDS011;4481;43.406;24.454;2023-02-01T10:41:44;16.63;;;10.40;;
8889;SDS011;4481;43.406;24.454;2023-02-01T10:44:11;5.30;;;4.00;;
8889;SDS011;4481;43.406;24.454;2023-02-01T10:46:39;2.70;;;2.03;;
8889;SDS011;4481;43.406;24.454;2023-02-01T10:49:11;2.87;;;1.90;;
8889;SDS011;4481;43.406;24.454;2023-02-01T10:51:44;3.73;;;2.00;;
8889;SDS011;4481;43.406;24.454;2023-02-01T10:54:17;4.00;;;2.03;;
8889;SDS011;4481;43.406;24.454;2023-02-01T10:56:46;5.83;;;2.10;;
8889;SDS011;4481;43.406;24.454;2023-02-01T10:59:15;1.87;;;1.70;;
8889;SDS011;4481;43.406;24.454;2023-02-01T11:01:43;2.13;;;1.93;;
8889;SDS011;4481;43.406;24.454;2023-02-01T11:04:12;5.13;;;1.93;;
8889;SDS011;4481;43.406;24.454;2023-02-01T11:06:41;3.03;;;1.90;;
8889;SDS011;4481;43.406;24.454;2023-02-01T11:09:10;13.10;;;8.37;;
8889;SDS011;4481;43.406;24.454;2023-02-01T11:11:53;7.67;;;4.30;;
8889;SDS011;4481;43.406;24.454;2023-02-01T11:14:26;12.57;;;6.57;;
8889;SDS011;4481;43.406;24.454;2023-02-01T11:16:58;4.23;;;2.83;;
8889;SDS011;4481;43.406;24.454;2023-02-01T11:19:26;4.93;;;3.57;;
8889;SDS011;4481;43.406;24.454;2023-02-01T11:21:53;7.20;;;4.43;;
8889;SDS011;4481;43.406;24.454;2023-02-01T11:24:22;2.50;;;2.13;;
8889;SDS011;4481;43.406;24.454;2023-02-01T11:26:49;6.00;;;4.17;;
8889;SDS011;4481;43.406;24.454;2023-02-01T11:29:16;5.43;;;3.20;;
8889;SDS011;4481;43.406;24.454;2023-02-01T11:31:47;3.30;;;2.60;;
8889;SDS011;4481;43.406;24.454;2023-02-01T11:34:14;5.47;;;3.20;;
8889;SDS011;4481;43.406;24.454;2023-02-01T11:36:42;3.83;;;2.60;;
8889;SDS011;4481;43.406;24.454;2023-02-01T11:39:17;2.57;;;2.27;;
8889;SDS011;4481;43.406;24.454;2023-02-01T11:41:56;3.53;;;2.70;;
8889;SDS011;4481;43.406;24.454;2023-02-01T11:44:29;4.03;;;2.53;;
8889;SDS011;4481;43.406;24.454;2023-02-01T11:47:08;3.40;;;2.47;;
8889;SDS011;4481;43.406;24.454;2023-02-01T11:49:44;2.00;;;1.90;;
8889;SDS011;4481;43.406;24.454;2023-02-01T11:52:11;5.30;;;1.90;;
8889;SDS011;4481;43.406;24.454;2023-02-01T11:54:48;2.63;;;2.13;;
8889;SDS011;4481;43.406;24.454;2023-02-01T11:57:32;8.00;;;1.80;;
8889;SDS011;4481;43.406;24.454;2023-02-01T12:00:18;5.13;;;2.00;;
8889;SDS011;4481;43.406;24.454;2023-02-01T12:03:02;2.10;;;1.90;;
8889;SDS011;4481;43.406;24.454;2023-02-01T12:05:47;2.10;;;1.90;;
8889;SDS011;4481;43.406;24.454;2023-02-01T12:08:23;2.73;;;1.87;;
8889;SDS011;4481;43.406;24.454;2023-02-01T12:11:32;2.50;;;1.93;;
8889;SDS011;4481;43.406;24.454;2023-02-01T12:14:15;2.60;;;1.70;;
8889;SDS011;4481;43.406;24.454;2023-02-01T12:17:11;2.57;;;2.10;;
8889;SDS011;4481;43.406;24.454;2023-02-01T12:20:27;3.60;;;1.97;;
8889;SDS011;4481;43.406;24.454;2023-02-01T12:23:06;3.63;;;1.87;;
8889;SDS011;4481;43.406;24.454;2023-02-01T12:25:52;3.13;;;1.70;;
8889;SDS011;4481;43.406;24.454;2023-02-01T12:28:38;2.00;;;1.80;;
8889;SDS011;4481;43.406;24.454;2023-02-01T12:31:30;1.77;;;1.67;;
8889;SDS011;4481;43.406;24.454;2023-02-01T12:34:15;5.77;;;1.73;;
8889;SDS011;4481;43.406;24.454;2023-02-01T12:37:00;2.53;;;1.83;;
8889;SDS011;4481;43.406;24.454;2023-02-01T12:39:38;3.60;;;2.10;;
8889;SDS011;4481;43.406;24.454;2023-02-01T12:42:11;2.60;;;1.70;;
8889;SDS011;4481;43.406;24.454;2023-02-01T12:44:43;2.33;;;1.70;;
8889;SDS011;4481;43.406;24.454;2023-02-01T12:47:16;1.83;;;1.50;;
8889;SDS011;4481;43.406;24.454;2023-02-01T12:49:50;3.70;;;2.00;;
8889;SDS011;4481;43.406;24.454;2023-02-01T12:52:24;2.47;;;2.00;;
8889;SDS011;4481;43.406;24.454;2023-02-01T12:55:00;3.20;;;2.10;;
8889;SDS011;4481;43.406;24.454;2023-02-01T12:57:31;2.80;;;2.10;;
8889;SDS011;4481;43.406;24.454;2023-02-01T13:00:01;2.53;;;1.87;;
8889;SDS011;4481;43.406;24.454;2023-02-01T13:02:35;2.93;;;1.60;;
8889;SDS011;4481;43.406;24.454;2023-02-01T13:05:12;3.10;;;1.90;;
8889;SDS011;4481;43.406;24.454;2023-02-01T13:07:43;2.37;;;1.90;;
8889;SDS011;4481;43.406;24.454;2023-02-01T13:10:15;2.57;;;1.93;;
8889;SDS011;4481;43.406;24.454;2023-02-01T13:12:48;2.10;;;1.90;;
8889;SDS011;4481;43.406;24.454;2023-02-01T13:15:20;2.43;;;2.03;;
8889;SDS011;4481;43.406;24.454;2023-02-01T13:17:51;2.60;;;1.83;;
8889;SDS011;4481;43.406;24.454;2023-02-01T13:20:21;2.60;;;2.23;;
8889;SDS011;4481;43.406;24.454;2023-02-01T13:22:51;3.93;;;2.30;;
8889;SDS011;4481;43.406;24.454;2023-02-01T13:25:26;2.60;;;1.83;;
8889;SDS011;4481;43.406;24.454;2023-02-01T13:27:58;6.60;;;2.03;;
8889;SDS011;4481;43.406;24.454;2023-02-01T13:30:30;3.03;;;2.03;;
8889;SDS011;4481;43.406;24.454;2023-02-01T13:33:17;3.57;;;2.70;;
8889;SDS011;4481;43.406;24.454;2023-02-01T13:39:19;4.13;;;2.20;;
8889;SDS011;4481;43.406;24.454;2023-02-01T13:42:12;3.17;;;2.13;;
8889;SDS011;4481;43.406;24.454;2023-02-01T13:44:42;2.47;;;1.90;;
8889;SDS011;4481;43.406;24.454;2023-02-01T13:47:21;3.53;;;2.30;;
8889;SDS011;4481;43.406;24.454;2023-02-01T13:49:52;3.07;;;2.37;;
8889;SDS011;4481;43.406;24.454;2023-02-01T13:52:26;3.53;;;2.40;;
8889;SDS011;4481;43.406;24.454;2023-02-01T13:55:01;3.77;;;2.80;;
8889;SDS011;4481;43.406;24.454;2023-02-01T13:57:40;2.80;;;2.47;;
8889;SDS011;4481;43.406;24.454;2023-02-01T14:00:22;3.63;;;2.83;;
8889;SDS011;4481;43.406;24.454;2023-02-01T14:02:59;3.13;;;2.60;;
8889;SDS011;4481;43.406;24.454;2023-02-01T14:08:37;2.70;;;2.07;;
8889;SDS011;4481;43.406;24.454;2023-02-01T14:11:05;2.60;;;2.17;;
8889;SDS011;4481;43.406;24.454;2023-02-01T14:13:32;3.50;;;2.70;;
8889;SDS011;4481;43.406;24.454;2023-02-01T14:16:13;3.30;;;2.80;;
8889;SDS011;4481;43.406;24.454;2023-02-01T14:18:57;3.67;;;2.50;;
8889;SDS011;4481;43.406;24.454;2023-02-01T14:21:25;5.33;;;2.80;;
8889;SDS011;4481;43.406;24.454;2023-02-01T14:23:56;4.80;;;2.70;;
8889;SDS011;4481;43.406;24.454;2023-02-01T14:26:25;4.87;;;2.90;;
8889;SDS011;4481;43.406;24.454;2023-02-01T14:28:55;4.33;;;2.70;;
8889;SDS011;4481;43.406;24.454;2023-02-01T14:31:35;4.67;;;2.87;;
8889;SDS011;4481;43.406;24.454;2023-02-01T14:34:11;2.90;;;2.60;;
8889;SDS011;4481;43.406;24.454;2023-02-01T14:36:43;3.27;;;2.90;;
8889;SDS011;4481;43.406;24.454;2023-02-01T14:39:20;4.43;;;3.27;;
8889;SDS011;4481;43.406;24.454;2023-02-01T14:41:52;3.00;;;2.70;;
8889;SDS011;4481;43.406;24.454;2023-02-01T14:44:28;3.57;;;2.63;;
8889;SDS011;4481;43.406;24.454;2023-02-01T14:47:06;4.10;;;3.00;;
8889;SDS011;4481;43.406;24.454;2023-02-01T14:49:34;3.30;;;2.97;;
8889;SDS011;4481;43.406;24.454;2023-02-01T14:52:09;6.50;;;4.30;;
8889;SDS011;4481;43.406;24.454;2023-02-01T14:54:41;5.13;;;3.40;;
8889;SDS011;4481;43.406;24.454;2023-02-01T14:57:13;5.50;;;3.37;;
8889;SDS011;4481;43.406;24.454;2023-02-01T14:59:42;4.07;;;3.43;;
8889;SDS011;4481;43.406;24.454;2023-02-01T15:02:16;4.63;;;3.10;;
8889;SDS011;4481;43.406;24.454;2023-02-01T15:04:47;4.00;;;3.30;;
8889;SDS011;4481;43.406;24.454;2023-02-01T15:07:20;4.37;;;3.23;;
8889;SDS011;4481;43.406;24.454;2023-02-01T15:09:48;6.37;;;4.07;;
8889;SDS011;4481;43.406;24.454;2023-02-01T15:12:15;4.40;;;3.50;;
8889;SDS011;4481;43.406;24.454;2023-02-01T15:14:43;4.20;;;3.27;;
8889;SDS011;4481;43.406;24.454;2023-02-01T15:17:17;7.33;;;3.50;;
8889;SDS011;4481;43.406;24.454;2023-02-01T15:19:52;5.13;;;3.13;;
8889;SDS011;4481;43.406;24.454;2023-02-01T15:22:18;6.03;;;3.30;;
8889;SDS011;4481;43.406;24.454;2023-02-01T15:24:51;6.13;;;3.77;;
8889;SDS011;4481;43.406;24.454;2023-02-01T15:27:19;7.73;;;4.30;;
8889;SDS011;4481;43.406;24.454;2023-02-01T15:29:45;8.30;;;5.27;;
8889;SDS011;4481;43.406;24.454;2023-02-01T15:34:55;6.23;;;3.60;;